Myrtle Beach, South Carolina
Current Conditions -  °F | °C
As of 7:55 PM on Sunday 23 Nov 2014 (Local Time) from KMYR Reporting Station
Light Rain Light Rain  
Wind Chill: 70°   Ceiling: 4800
Heat Index: 70°   Visibility: 8mi
Dew Point: 64°   Wind: 28mph
Humidity: 83%   Direction: 140°SE
Pressure: 29.85"   Gusts: 37mph
Location:  33.69°N, 78.88°W
Report Text: KMYR 240055Z 14024G32KT 110V170 8SM -RA SCT016 OVC048 21/18 A2985 RMK PRESFR
Loading
Personal Weather Stations






























Interactive Weather Map New forecast layout! Learn more

10-Day Weather Forecast

Advertisements
Track Severe Weather on mobile